Foraker, Oklahoma
Current Conditions -  °F | °C
As of 9:53 PM on Saturday 25 Oct 2014 (Local Time) from KPNC Reporting Station
Clear Clear  
Wind Chill: 74°   Ceiling: Unl
Heat Index: 74°   Visibility: 10mi
Dew Point: 61°   Wind: 8mph
Humidity: 64%   Direction: 160°SSE
Pressure: 29.97"   Gusts: NA
Location:  36.8783°N, 96.6155°W
Report Text: KPNC 260253Z AUTO 16007KT 10SM CLR 23/16 A2997 RMK AO2 SLP138 T02330161 58002
Loading
Personal Weather Stations






























Interactive Weather Map
Tropical Storm Tracking
New forecast layout! Learn more

10-Day Weather Forecast

Advertisements
Track Severe Weather on mobile